Time;durP1;ratioP1;P1;durP2;ratioP2;P2;SDS_P1;SDS_P2;PMS_P1;PMS_P2;Temp;Humidity;BMP_temperature;BMP_pressure;BME280_temperature;BME280_humidity;BME280_pressure;Samples;Min_cycle;Max_cycle;Signal;HPM_P1;HPM_P2
2021/12/02 13:16:19;;;;;;;12.57;6.18;;;;;;;;;;5164029;22;20500;-68
2021/12/02 13:18:45;;;;;;;17.73;5.95;;;;;;;;;;5015973;28;20072;-70
2021/12/02 13:21:30;;;;;;;14.23;5.95;;;;;;;;;;5151314;23;20043;-69
2021/12/02 13:24:02;;;;;;;14.63;6.35;;;;;;;;;;4985773;28;20030;-69
2021/12/02 13:26:30;;;;;;;14.63;6.38;;;;;;;;;;4986130;28;20067;-73
2021/12/02 13:28:58;;;;;;;19.73;7.75;;;;;;;;;;4987039;28;20027;-81
2021/12/02 13:31:25;;;;;;;18.17;6.95;;;;;;;;;;4984317;28;20023;-74
2021/12/02 13:33:53;;;;;;;17.35;7.38;;;;;;;;;;4986862;28;20055;-74
2021/12/02 13:36:35;;;;;;;17.27;7.13;;;;;;;;;;4985467;28;20513;-77
2021/12/02 13:39:05;;;;;;;14.60;6.82;;;;;;;;;;4984845;28;20069;-70
2021/12/02 13:41:35;;;;;;;14.43;6.03;;;;;;;;;;4982063;28;20096;-71
2021/12/02 13:44:06;;;;;;;13.82;6.22;;;;;;;;;;4980763;28;20039;-72
2021/12/02 13:46:35;;;;;;;16.65;7.10;;;;;;;;;;4982999;28;20037;-75
2021/12/02 13:49:03;;;;;;;13.05;6.35;;;;;;;;;;4984958;28;20041;-71
2021/12/02 13:52:16;;;;;;;13.43;5.80;;;;;;;;;;4984865;28;20070;-70
2021/12/02 13:54:30;;;;;;;14.23;6.85;;;;;;;;;;4983427;28;20069;-75
2021/12/02 13:56:57;;;;;;;14.77;7.47;;;;;;;;;;4982891;28;20113;-71
2021/12/02 13:59:26;;;;;;;16.45;7.35;;;;;;;;;;4986929;28;20023;-72
2021/12/02 14:01:54;;;;;;;19.63;7.45;;;;;;;;;;4986956;28;20390;-75
2021/12/02 14:04:21;;;;;;;26.75;10.90;;;;;;;;;;4987355;28;20085;-72
2021/12/02 14:06:47;;;;;;;16.42;7.78;;;;;;;;;;5002384;28;20030;-80
2021/12/02 14:09:14;;;;;;;22.65;8.02;;;;;;;;;;4968499;28;20030;-74
2021/12/02 14:11:40;;;;;;;14.02;7.10;;;;;;;;;;4976783;28;20058;-68
2021/12/02 14:14:06;;;;;;;19.40;8.57;;;;;;;;;;4979022;28;20037;-67
2021/12/02 14:16:32;;;;;;;12.65;6.85;;;;;;;;;;4976474;28;20015;-73
2021/12/02 14:19:08;;;;;;;23.45;10.70;;;;;;;;;;4977052;28;20042;-75
2021/12/02 14:21:34;;;;;;;15.48;6.30;;;;;;;;;;4985889;28;20813;-74
2021/12/02 14:24:00;;;;;;;14.27;7.07;;;;;;;;;;4987798;28;20357;-81
2021/12/02 14:26:29;;;;;;;13.93;6.00;;;;;;;;;;4967072;28;20039;-69
2021/12/02 14:28:56;;;;;;;10.40;5.53;;;;;;;;;;4955158;28;20023;-74
2021/12/02 14:31:26;;;;;;;14.68;6.53;;;;;;;;;;4954579;28;20162;-68
2021/12/02 14:33:54;;;;;;;14.95;6.60;;;;;;;;;;4957505;28;20387;-69
2021/12/02 14:36:21;;;;;;;16.20;6.75;;;;;;;;;;4961170;28;20082;-67
2021/12/02 14:39:06;;;;;;;13.43;6.85;;;;;;;;;;4954962;28;20032;-72
2021/12/02 14:41:34;;;;;;;16.65;6.65;;;;;;;;;;4954834;28;20637;-73
2021/12/02 14:44:02;;;;;;;14.23;7.43;;;;;;;;;;4954954;28;20116;-67
2021/12/02 14:46:39;;;;;;;9.98;5.65;;;;;;;;;;4954555;28;20386;-68
2021/12/02 14:52:04;;;;;;;17.33;6.43;;;;;;;;;;4962560;28;20138;-65
2021/12/02 14:54:32;;;;;;;12.40;6.57;;;;;;;;;;4960108;28;20380;-69
2021/12/02 14:56:58;;;;;;;17.02;8.32;;;;;;;;;;4954692;28;20456;-70
2021/12/02 14:59:24;;;;;;;18.10;7.47;;;;;;;;;;4953740;28;20039;-70
2021/12/02 15:01:58;;;;;;;17.35;7.78;;;;;;;;;;4953938;28;20053;-69
2021/12/02 15:04:26;;;;;;;22.65;8.85;;;;;;;;;;4953901;28;20031;-72
2021/12/02 15:06:52;;;;;;;16.13;8.27;;;;;;;;;;4954440;28;20122;-67
2021/12/02 15:09:27;;;;;;;16.00;8.32;;;;;;;;;;4954197;28;20274;-67
2021/12/02 15:11:53;;;;;;;16.10;8.10;;;;;;;;;;4954326;28;20031;-76
2021/12/02 15:14:39;;;;;;;16.90;7.38;;;;;;;;;;4954128;28;20034;-69
2021/12/02 15:17:06;;;;;;;16.73;8.02;;;;;;;;;;4954149;28;20101;-75
2021/12/02 15:19:36;;;;;;;16.13;8.27;;;;;;;;;;4953306;28;20046;-73
2021/12/02 15:22:03;;;;;;;16.13;8.20;;;;;;;;;;4954004;28;20134;-70
2021/12/02 15:24:39;;;;;;;16.35;8.32;;;;;;;;;;4954565;28;20062;-69
2021/12/02 15:27:12;;;;;;;18.45;10.00;;;;;;;;;;4952146;28;20027;-72
2021/12/02 15:29:46;;;;;;;20.58;10.20;;;;;;;;;;4951812;28;20035;-70
2021/12/02 15:32:13;;;;;;;22.13;10.10;;;;;;;;;;4953833;28;20037;-72
2021/12/02 15:34:39;;;;;;;23.02;9.65;;;;;;;;;;4953948;28;20038;-73
2021/12/02 15:37:06;;;;;;;19.05;9.27;;;;;;;;;;4953863;28;20102;-75
2021/12/02 15:39:32;;;;;;;21.15;9.75;;;;;;;;;;4953361;28;20027;-74
2021/12/02 15:41:59;;;;;;;20.05;9.20;;;;;;;;;;4953857;28;20072;-69
2021/12/02 15:44:28;;;;;;;22.10;10.00;;;;;;;;;;4953722;28;20035;-70
2021/12/02 15:47:07;;;;;;;21.38;11.07;;;;;;;;;;4953422;28;20023;-71
2021/12/02 15:49:33;;;;;;;17.25;8.05;;;;;;;;;;4953690;28;20070;-71
2021/12/02 15:52:01;;;;;;;20.55;9.55;;;;;;;;;;4952119;28;20118;-70
2021/12/02 15:54:28;;;;;;;22.10;9.32;;;;;;;;;;4953511;28;20077;-71
2021/12/02 15:56:55;;;;;;;21.85;10.05;;;;;;;;;;4953520;28;20039;-71
2021/12/02 15:59:23;;;;;;;19.27;9.20;;;;;;;;;;4953410;28;20028;-69
2021/12/02 16:02:00;;;;;;;22.05;9.60;;;;;;;;;;4952265;28;20039;-70
2021/12/02 16:07:07;;;;;;;24.85;10.65;;;;;;;;;;4953653;28;20038;-68
2021/12/02 16:14:54;;;;;;;21.77;9.65;;;;;;;;;;4962801;28;20037;-72
2021/12/02 16:17:20;;;;;;;21.05;10.48;;;;;;;;;;4960086;28;20027;-70
2021/12/02 16:19:46;;;;;;;24.63;10.40;;;;;;;;;;4961040;28;20097;-73
2021/12/02 16:22:14;;;;;;;18.75;10.15;;;;;;;;;;4962484;28;20055;-71
2021/12/02 16:24:40;;;;;;;26.75;10.88;;;;;;;;;;4961455;28;20114;-69
2021/12/02 16:27:06;;;;;;;22.80;10.25;;;;;;;;;;4961136;28;20031;-70
2021/12/02 16:29:33;;;;;;;26.10;10.88;;;;;;;;;;4962766;28;20027;-70
2021/12/02 16:31:59;;;;;;;24.38;10.98;;;;;;;;;;4960170;28;20449;-73
2021/12/02 16:34:25;;;;;;;22.27;9.98;;;;;;;;;;4955326;28;20110;-67
2021/12/02 16:36:51;;;;;;;20.80;10.10;;;;;;;;;;4952971;28;20028;-73
2021/12/02 16:39:18;;;;;;;20.45;9.18;;;;;;;;;;4955199;28;20027;-72
2021/12/02 16:41:45;;;;;;;17.50;8.15;;;;;;;;;;4961964;28;20081;-70
2021/12/02 16:44:11;;;;;;;16.08;7.55;;;;;;;;;;4961820;28;20070;-67
2021/12/02 16:46:37;;;;;;;15.77;7.70;;;;;;;;;;4961972;28;20039;-70
2021/12/02 16:49:03;;;;;;;20.55;8.88;;;;;;;;;;4962851;28;20082;-73
2021/12/02 16:51:30;;;;;;;23.52;9.65;;;;;;;;;;4961396;28;20035;-71
2021/12/02 16:53:56;;;;;;;20.95;9.27;;;;;;;;;;4960064;28;20084;-72
2021/12/02 16:56:22;;;;;;;16.55;8.77;;;;;;;;;;4961658;28;20030;-71
2021/12/02 16:58:49;;;;;;;20.35;9.50;;;;;;;;;;4961830;28;20023;-70
2021/12/02 17:01:15;;;;;;;21.30;9.00;;;;;;;;;;4953113;28;20023;-70
2021/12/02 17:03:42;;;;;;;23.55;9.65;;;;;;;;;;4966786;28;20034;-74
2021/12/02 17:06:08;;;;;;;20.58;9.90;;;;;;;;;;4963908;28;20042;-65
2021/12/02 17:08:34;;;;;;;18.15;8.73;;;;;;;;;;4960649;28;20023;-70
2021/12/02 17:11:02;;;;;;;18.60;8.52;;;;;;;;;;4962753;28;20023;-70
2021/12/02 17:13:29;;;;;;;19.75;7.78;;;;;;;;;;4962564;28;20019;-69
2021/12/02 17:15:55;;;;;;;20.30;9.23;;;;;;;;;;4960010;28;20027;-81
2021/12/02 17:18:21;;;;;;;20.83;9.43;;;;;;;;;;4961039;28;20031;-79
2021/12/02 17:20:49;;;;;;;19.95;9.38;;;;;;;;;;4954452;28;20492;-76
2021/12/02 17:23:18;;;;;;;20.90;10.00;;;;;;;;;;4956802;28;20479;-70
2021/12/02 17:25:44;;;;;;;21.48;10.05;;;;;;;;;;4951986;28;20167;-79
2021/12/02 17:28:10;;;;;;;23.17;10.20;;;;;;;;;;4959299;28;20034;-74
2021/12/02 17:30:37;;;;;;;21.70;9.60;;;;;;;;;;4961098;28;20023;-71
2021/12/02 17:33:04;;;;;;;21.25;9.95;;;;;;;;;;4961507;28;20026;-71
2021/12/02 17:35:30;;;;;;;20.73;10.35;;;;;;;;;;4960242;28;20375;-72
2021/12/02 17:37:57;;;;;;;18.65;9.52;;;;;;;;;;4961143;28;20031;-72
2021/12/02 17:40:29;;;;;;;17.45;8.32;;;;;;;;;;4961064;28;20109;-72
2021/12/02 17:42:55;;;;;;;17.38;8.25;;;;;;;;;;4960041;28;20031;-77
2021/12/02 17:45:23;;;;;;;18.15;8.38;;;;;;;;;;4959616;28;20471;-73
2021/12/02 17:47:49;;;;;;;14.88;7.68;;;;;;;;;;4960544;28;20023;-74
2021/12/02 17:50:18;;;;;;;14.68;8.35;;;;;;;;;;4961252;28;20045;-74
2021/12/02 17:52:45;;;;;;;16.10;7.97;;;;;;;;;;4960126;28;20093;-83
2021/12/02 17:55:11;;;;;;;16.10;8.48;;;;;;;;;;4960319;28;20031;-75
2021/12/02 17:57:37;;;;;;;15.52;8.00;;;;;;;;;;4961881;28;20019;-78
2021/12/02 18:00:07;;;;;;;17.30;7.78;;;;;;;;;;4959663;28;20502;-74
2021/12/02 18:02:33;;;;;;;17.10;8.18;;;;;;;;;;4962853;28;20113;-71
2021/12/02 18:05:03;;;;;;;18.60;8.35;;;;;;;;;;4965667;28;20039;-73
2021/12/02 18:07:29;;;;;;;19.52;7.95;;;;;;;;;;4964305;28;20037;-68
2021/12/02 18:09:55;;;;;;;13.80;6.75;;;;;;;;;;4962781;28;20035;-72
2021/12/02 18:12:22;;;;;;;15.00;7.45;;;;;;;;;;4963497;28;20430;-66
2021/12/02 18:14:48;;;;;;;16.40;6.93;;;;;;;;;;4962086;28;20030;-71
2021/12/02 18:17:14;;;;;;;16.45;7.32;;;;;;;;;;4963046;28;20081;-70
2021/12/02 18:19:40;;;;;;;15.35;7.40;;;;;;;;;;4963517;28;20130;-72
2021/12/02 18:22:06;;;;;;;13.35;6.90;;;;;;;;;;4959118;28;20079;-64
2021/12/02 18:24:33;;;;;;;12.65;7.05;;;;;;;;;;4955197;28;20483;-79
2021/12/02 18:26:59;;;;;;;14.43;6.88;;;;;;;;;;4958068;28;20034;-69
2021/12/02 18:29:25;;;;;;;13.35;6.40;;;;;;;;;;4967798;28;20026;-74
2021/12/02 18:31:52;;;;;;;13.10;6.43;;;;;;;;;;4974890;28;20038;-71
2021/12/02 18:34:18;;;;;;;15.65;7.82;;;;;;;;;;4974432;28;20023;-66
2021/12/02 18:36:44;;;;;;;16.42;7.30;;;;;;;;;;4974719;28;20391;-74
2021/12/02 18:39:13;;;;;;;14.65;6.72;;;;;;;;;;4974009;28;20118;-71
2021/12/02 18:41:39;;;;;;;20.40;8.57;;;;;;;;;;4966969;28;20383;-68
2021/12/02 18:44:06;;;;;;;13.75;6.57;;;;;;;;;;4955107;28;20114;-67
2021/12/02 18:46:35;;;;;;;15.25;6.28;;;;;;;;;;4955138;28;20027;-72
2021/12/02 18:49:01;;;;;;;15.60;6.35;;;;;;;;;;4954949;28;20498;-70
2021/12/02 18:51:32;;;;;;;16.38;7.85;;;;;;;;;;4955269;28;20496;-70
2021/12/02 18:53:59;;;;;;;18.40;7.07;;;;;;;;;;4956501;28;20034;-67
2021/12/02 18:56:25;;;;;;;12.85;6.35;;;;;;;;;;4963378;28;20031;-75
2021/12/02 18:58:51;;;;;;;14.98;7.35;;;;;;;;;;4971272;28;20030;-72
2021/12/02 19:01:17;;;;;;;14.98;7.55;;;;;;;;;;4974008;28;20383;-62
2021/12/02 19:03:43;;;;;;;15.88;8.50;;;;;;;;;;4974026;28;20097;-65
2021/12/02 19:27:37;;;;;;;12.52;6.40;;;;;;;;;;4973187;28;20034;-76
2021/12/02 19:30:04;;;;;;;10.10;5.10;;;;;;;;;;4973578;28;20125;-73
2021/12/02 19:32:32;;;;;;;10.73;5.97;;;;;;;;;;4973596;28;20754;-70
2021/12/02 19:34:58;;;;;;;13.10;6.47;;;;;;;;;;4973520;28;20058;-72
2021/12/02 19:37:24;;;;;;;16.50;6.80;;;;;;;;;;4973179;28;20031;-70
2021/12/02 19:39:50;;;;;;;18.02;6.90;;;;;;;;;;4973343;28;20023;-69
2021/12/02 19:42:16;;;;;;;17.08;7.13;;;;;;;;;;4964922;28;20035;-65
2021/12/02 19:44:42;;;;;;;15.50;6.10;;;;;;;;;;4961294;28;20039;-63
2021/12/02 19:47:08;;;;;;;14.63;6.88;;;;;;;;;;4962889;28;20031;-70
2021/12/02 19:49:34;;;;;;;16.88;6.05;;;;;;;;;;4961622;28;20031;-76
2021/12/02 19:52:00;;;;;;;18.55;7.25;;;;;;;;;;4961868;28;20045;-78
2021/12/02 19:54:26;;;;;;;17.08;7.15;;;;;;;;;;4960466;28;20031;-76
2021/12/02 19:56:53;;;;;;;14.40;5.88;;;;;;;;;;4959431;28;20027;-77
2021/12/02 19:59:19;;;;;;;16.63;7.07;;;;;;;;;;4968488;28;20144;-75
2021/12/02 20:01:47;;;;;;;15.60;6.30;;;;;;;;;;4962621;28;20106;-73
2021/12/02 20:04:14;;;;;;;13.82;6.43;;;;;;;;;;4958965;28;20028;-77
2021/12/02 20:06:40;;;;;;;12.98;5.72;;;;;;;;;;4961633;28;20035;-77
2021/12/02 20:09:06;;;;;;;11.43;5.43;;;;;;;;;;4962151;28;20054;-83
2021/12/02 20:11:32;;;;;;;9.10;5.03;;;;;;;;;;4954432;28;20058;-77
2021/12/02 20:13:58;;;;;;;10.38;4.97;;;;;;;;;;4973193;28;20026;-81
2021/12/02 20:18:51;;;;;;;13.45;5.55;;;;;;;;;;4992849;28;20026;-72
2021/12/02 20:21:18;;;;;;;11.02;5.80;;;;;;;;;;4991451;28;20089;-70
2021/12/02 20:23:45;;;;;;;12.35;6.40;;;;;;;;;;4991249;28;20033;-71
2021/12/02 20:26:12;;;;;;;12.23;5.68;;;;;;;;;;4992723;28;20039;-77
2021/12/02 20:28:41;;;;;;;12.82;5.10;;;;;;;;;;4992049;28;20027;-69
2021/12/02 20:31:08;;;;;;;11.27;5.35;;;;;;;;;;4991435;28;20038;-71
2021/12/02 20:33:35;;;;;;;13.45;5.82;;;;;;;;;;4991037;28;20027;-77
2021/12/02 20:36:01;;;;;;;8.73;4.80;;;;;;;;;;4968152;28;20078;-68
2021/12/02 20:38:27;;;;;;;9.80;4.60;;;;;;;;;;4948182;28;20024;-73
2021/12/02 20:40:54;;;;;;;11.05;4.70;;;;;;;;;;4951541;28;20125;-65
2021/12/02 20:43:20;;;;;;;13.65;5.03;;;;;;;;;;4973909;28;20031;-75
2021/12/02 20:45:50;;;;;;;11.10;5.18;;;;;;;;;;4971528;28;20034;-77
2021/12/02 20:48:26;;;;;;;10.68;5.50;;;;;;;;;;4971924;28;20027;-77
2021/12/02 20:50:52;;;;;;;11.20;5.13;;;;;;;;;;4968453;28;20101;-67
2021/12/02 20:53:18;;;;;;;9.48;5.65;;;;;;;;;;4970829;28;20034;-82
2021/12/02 20:55:46;;;;;;;9.80;4.93;;;;;;;;;;4972302;28;20019;-68
2021/12/02 20:58:12;;;;;;;11.25;5.07;;;;;;;;;;4972939;28;20122;-69
2021/12/02 21:00:38;;;;;;;13.45;6.18;;;;;;;;;;4972123;28;20018;-72
2021/12/02 21:03:05;;;;;;;13.70;5.07;;;;;;;;;;4972240;28;20035;-64
2021/12/02 21:05:32;;;;;;;13.48;5.97;;;;;;;;;;4972562;28;20035;-77
2021/12/02 21:07:59;;;;;;;11.02;5.38;;;;;;;;;;4970357;28;20034;-64
2021/12/02 21:10:28;;;;;;;9.98;5.68;;;;;;;;;;4971410;28;20026;-69
2021/12/02 21:12:55;;;;;;;9.88;5.40;;;;;;;;;;4972636;28;20030;-69
2021/12/02 21:15:23;;;;;;;11.60;5.90;;;;;;;;;;4972044;28;20043;-70
2021/12/02 21:17:50;;;;;;;11.30;5.70;;;;;;;;;;4963540;28;20035;-70
2021/12/02 21:20:17;;;;;;;11.25;6.07;;;;;;;;;;4963338;28;20047;-64
2021/12/02 21:22:43;;;;;;;11.57;5.90;;;;;;;;;;4962806;28;20495;-64
2021/12/02 21:25:13;;;;;;;14.07;6.53;;;;;;;;;;4960700;28;20082;-65
2021/12/02 21:27:41;;;;;;;13.57;6.35;;;;;;;;;;4957672;28;20031;-71
2021/12/02 21:30:08;;;;;;;13.82;6.70;;;;;;;;;;4956875;28;20020;-72
2021/12/02 21:32:34;;;;;;;13.35;6.22;;;;;;;;;;4966374;28;20026;-72
2021/12/02 21:35:01;;;;;;;14.20;6.13;;;;;;;;;;4971831;28;20026;-64
2021/12/02 21:37:37;;;;;;;9.50;5.35;;;;;;;;;;4975084;28;20636;-64
2021/12/02 21:40:04;;;;;;;11.35;5.07;;;;;;;;;;4966026;28;20106;-70
2021/12/02 21:42:30;;;;;;;13.10;5.68;;;;;;;;;;4963697;28;20503;-72
2021/12/02 21:44:57;;;;;;;13.00;5.68;;;;;;;;;;4963791;28;20047;-71
2021/12/02 21:47:23;;;;;;;11.35;5.72;;;;;;;;;;4964725;28;20030;-72
2021/12/02 21:49:50;;;;;;;11.02;5.43;;;;;;;;;;4969568;28;20026;-71
2021/12/02 21:52:16;;;;;;;11.75;5.63;;;;;;;;;;4975183;28;20041;-70
2021/12/02 21:54:43;;;;;;;10.48;5.55;;;;;;;;;;4971889;28;20082;-75
2021/12/02 21:57:14;;;;;;;10.68;5.47;;;;;;;;;;4969597;28;20037;-69
2021/12/02 21:59:45;;;;;;;9.77;4.90;;;;;;;;;;4966942;28;20027;-71
2021/12/02 22:02:11;;;;;;;11.45;5.10;;;;;;;;;;4965640;28;20626;-75
2021/12/02 22:04:39;;;;;;;8.43;4.60;;;;;;;;;;4966006;28;20107;-65
2021/12/02 22:07:07;;;;;;;10.32;4.47;;;;;;;;;;4958611;28;20027;-79
2021/12/02 22:09:33;;;;;;;10.63;4.95;;;;;;;;;;4956209;28;20027;-70
2021/12/02 22:11:59;;;;;;;11.75;4.70;;;;;;;;;;4955681;28;20082;-73
2021/12/02 22:14:26;;;;;;;9.50;4.88;;;;;;;;;;4956176;28;20447;-74
2021/12/02 22:16:53;;;;;;;8.85;4.82;;;;;;;;;;4972227;28;20041;-75
2021/12/02 22:19:20;;;;;;;12.98;5.22;;;;;;;;;;4963991;28;20039;-76
2021/12/02 22:21:46;;;;;;;9.32;4.93;;;;;;;;;;4963345;28;20046;-72
2021/12/02 22:24:12;;;;;;;11.68;4.85;;;;;;;;;;4965315;28;20034;-75
2021/12/02 22:26:39;;;;;;;14.23;5.65;;;;;;;;;;4965266;28;20027;-76
2021/12/02 22:29:07;;;;;;;13.50;5.00;;;;;;;;;;4964933;28;20058;-70
2021/12/02 22:31:33;;;;;;;10.32;4.63;;;;;;;;;;4962957;28;20023;-75
2021/12/02 22:34:01;;;;;;;8.52;4.20;;;;;;;;;;4965952;28;20506;-75
2021/12/02 22:36:27;;;;;;;8.40;4.45;;;;;;;;;;4963450;28;20023;-74
2021/12/02 22:38:54;;;;;;;10.43;4.15;;;;;;;;;;4963021;28;20023;-76
2021/12/02 22:41:20;;;;;;;8.00;4.22;;;;;;;;;;4963089;28;20678;-77
2021/12/02 22:43:46;;;;;;;10.50;4.88;;;;;;;;;;4964809;28;20019;-75
2021/12/02 22:46:12;;;;;;;9.40;4.68;;;;;;;;;;4962763;28;20074;-63
2021/12/02 22:48:38;;;;;;;12.00;4.35;;;;;;;;;;4963623;28;20027;-73
2021/12/02 22:51:04;;;;;;;9.57;4.40;;;;;;;;;;4964547;28;20558;-74
2021/12/02 22:53:31;;;;;;;9.15;4.88;;;;;;;;;;4964513;28;20026;-74
2021/12/02 22:55:57;;;;;;;11.25;4.97;;;;;;;;;;4962349;28;20030;-77
2021/12/02 22:58:24;;;;;;;7.80;4.20;;;;;;;;;;4970012;28;20015;-76
2021/12/02 23:01:02;;;;;;;8.95;3.80;;;;;;;;;;4974344;28;20035;-62
2021/12/02 23:03:28;;;;;;;7.53;4.15;;;;;;;;;;4974733;28;20033;-68
2021/12/02 23:05:54;;;;;;;6.63;4.05;;;;;;;;;;4959802;28;20487;-68
2021/12/02 23:08:20;;;;;;;6.75;4.07;;;;;;;;;;4954905;28;20032;-69
2021/12/02 23:10:46;;;;;;;8.70;3.78;;;;;;;;;;4955365;28;20035;-65
2021/12/02 23:13:13;;;;;;;9.07;4.25;;;;;;;;;;4954786;28;20035;-73
2021/12/02 23:15:40;;;;;;;12.50;4.05;;;;;;;;;;4954976;28;20022;-65
2021/12/02 23:18:06;;;;;;;8.27;3.85;;;;;;;;;;4955072;28;20094;-73
2021/12/02 23:20:33;;;;;;;6.25;3.42;;;;;;;;;;4954678;28;20039;-62
2021/12/02 23:22:59;;;;;;;7.53;4.00;;;;;;;;;;4954779;28;20055;-65
2021/12/02 23:25:28;;;;;;;9.93;3.88;;;;;;;;;;4954760;28;20439;-71
2021/12/02 23:30:36;;;;;;;8.13;3.50;;;;;;;;;;4954663;28;20067;-64
2021/12/02 23:33:04;;;;;;;7.68;3.17;;;;;;;;;;4954779;28;20023;-64
2021/12/02 23:35:30;;;;;;;6.75;3.70;;;;;;;;;;4954771;28;20031;-74
2021/12/02 23:37:56;;;;;;;9.40;3.83;;;;;;;;;;4954894;28;20126;-74
2021/12/02 23:40:22;;;;;;;8.82;3.53;;;;;;;;;;4954777;28;20023;-64
2021/12/02 23:42:48;;;;;;;6.68;3.67;;;;;;;;;;4954386;28;20035;-74
2021/12/02 23:45:14;;;;;;;7.25;3.85;;;;;;;;;;4954361;28;20407;-73
2021/12/02 23:47:40;;;;;;;9.63;3.67;;;;;;;;;;4954383;28;20383;-73
2021/12/02 23:50:09;;;;;;;8.40;3.40;;;;;;;;;;4954450;28;20047;-66
2021/12/02 23:52:35;;;;;;;8.30;3.55;;;;;;;;;;4954453;28;20031;-62
2021/12/02 23:55:01;;;;;;;7.93;3.47;;;;;;;;;;4954516;28;20467;-62
2021/12/02 23:57:27;;;;;;;9.13;3.63;;;;;;;;;;4954113;28;20042;-73
2021/12/02 23:59:53;;;;;;;7.03;3.33;;;;;;;;;;4953317;28;20431;-74
